Time;durP1;ratioP1;P1;durP2;ratioP2;P2;SDS_P1;SDS_P2;PMS_P1;PMS_P2;Temp;Humidity;BMP_temperature;BMP_pressure;BME280_temperature;BME280_humidity;BME280_pressure;Samples;Min_cycle;Max_cycle;Signal;HPM_P1;HPM_P2
2023/02/20 00:04:03;;;;;;;4.38;2.72;;;6.30;99.90;;;;;;20868037;28;20515;-44
2023/02/20 00:14:05;;;;;;;4.95;3.15;;;6.40;99.90;;;;;;20856833;28;20055;-43
2023/02/20 00:24:06;;;;;;;10.20;4.85;;;6.60;99.90;;;;;;20862738;28;20476;-44
2023/02/20 00:34:07;;;;;;;8.43;3.20;;;6.70;99.90;;;;;;20856679;28;20564;-44
2023/02/20 00:44:09;;;;;;;7.15;3.42;;;6.80;99.90;;;;;;20867796;28;20095;-43
2023/02/20 00:54:10;;;;;;;6.80;3.78;;;6.80;99.90;;;;;;20864472;28;20041;-44
2023/02/20 01:04:11;;;;;;;9.85;3.45;;;6.80;99.90;;;;;;20861490;28;20041;-44
2023/02/20 01:14:13;;;;;;;8.40;3.25;;;6.70;99.90;;;;;;20865291;28;20037;-44
2023/02/20 01:24:15;;;;;;;8.07;4.80;;;6.60;99.90;;;;;;20871195;28;20045;-43
2023/02/20 01:34:17;;;;;;;8.68;3.83;;;6.50;99.90;;;;;;20874745;28;20779;-44
2023/02/20 01:44:26;;;;;;;8.65;4.28;;;6.40;99.90;;;;;;20881938;28;20546;-44
2023/02/20 01:54:29;;;;;;;21.48;5.78;;;6.30;99.90;;;;;;20878551;28;20055;-44
2023/02/20 02:04:32;;;;;;;9.43;4.88;;;6.30;99.90;;;;;;20878058;28;20033;-44
2023/02/20 02:14:33;;;;;;;11.95;7.25;;;6.40;99.90;;;;;;20901580;28;20495;-44
2023/02/20 02:24:58;;;;;;;16.20;8.63;;;6.60;99.90;;;;;;20894502;28;20044;-44
2023/02/20 02:35:28;;;;;;;27.73;9.70;;;6.70;99.90;;;;;;20896707;28;20821;-44
2023/02/20 02:45:33;;;;;;;19.00;10.35;;;6.90;99.90;;;;;;20889295;28;20446;-44
2023/02/20 02:55:34;;;;;;;17.85;9.45;;;7.10;99.90;;;;;;20873543;28;20044;-44
2023/02/20 03:06:01;;;;;;;21.92;10.30;;;7.20;99.90;;;;;;20875178;28;20056;-44
2023/02/20 03:16:02;;;;;;;24.95;10.23;;;7.30;99.90;;;;;;20863625;28;20036;-44
2023/02/20 03:26:17;;;;;;;18.20;8.95;;;7.30;99.90;;;;;;20873992;28;20106;-44
2023/02/20 03:46:50;;;;;;;17.35;10.25;;;7.40;99.90;;;;;;20874964;28;20041;-44
2023/02/20 03:57:15;;;;;;;20.10;11.07;;;7.50;99.90;;;;;;20881508;28;20040;-44
2023/02/20 04:07:38;;;;;;;20.50;9.15;;;7.60;99.90;;;;;;20876599;28;20064;-44
2023/02/20 04:17:48;;;;;;;13.93;6.05;;;7.70;99.90;;;;;;20871719;28;20048;-44
2023/02/20 04:27:50;;;;;;;14.70;7.80;;;7.90;99.90;;;;;;20866359;28;20436;-44
2023/02/20 04:37:51;;;;;;;6.85;3.72;;;7.90;99.90;;;;;;20869783;28;20067;-43
2023/02/20 04:47:52;;;;;;;11.48;4.47;;;8.10;99.90;;;;;;20850385;28;20044;-44
2023/02/20 04:57:55;;;;;;;12.77;5.43;;;8.20;99.90;;;;;;20876829;28;20091;-44
2023/02/20 05:08:05;;;;;;;10.57;5.38;;;8.20;99.90;;;;;;20877472;28;20408;-44
2023/02/20 05:18:06;;;;;;;13.50;4.90;;;8.20;99.90;;;;;;20880820;28;21848;-44
2023/02/20 05:28:07;;;;;;;9.18;4.45;;;8.20;99.90;;;;;;20885277;28;21242;-44
2023/02/20 05:38:08;;;;;;;11.23;5.05;;;8.30;99.90;;;;;;20880084;28;22025;-42
2023/02/20 05:48:14;;;;;;;7.13;3.90;;;8.30;99.90;;;;;;20887601;28;20579;-42
2023/02/20 05:58:15;;;;;;;6.50;3.88;;;8.30;99.90;;;;;;20886634;28;20151;-43
2023/02/20 06:08:16;;;;;;;12.80;4.88;;;8.30;99.90;;;;;;20880569;28;20048;-42
2023/02/20 06:18:17;;;;;;;6.82;4.13;;;8.20;99.90;;;;;;20888830;28;20258;-42
2023/02/20 06:28:20;;;;;;;10.48;4.57;;;8.30;99.90;;;;;;20886996;28;20052;-42
2023/02/20 06:38:21;;;;;;;8.95;3.83;;;8.20;99.90;;;;;;20882568;28;20064;-42
2023/02/20 06:48:23;;;;;;;9.45;3.53;;;8.20;99.90;;;;;;20878561;28;20056;-42
2023/02/20 06:58:24;;;;;;;7.95;3.15;;;8.20;99.90;;;;;;20883113;28;20170;-42
2023/02/20 07:08:25;;;;;;;6.72;3.58;;;8.20;99.90;;;;;;20875069;28;20211;-42
2023/02/20 07:18:26;;;;;;;10.63;4.20;;;8.20;99.90;;;;;;20866924;28;20045;-42
2023/02/20 07:28:27;;;;;;;8.30;3.53;;;8.20;99.90;;;;;;20864429;28;20053;-43
2023/02/20 07:38:28;;;;;;;8.52;2.72;;;8.20;99.90;;;;;;20869511;28;20049;-42
2023/02/20 07:48:29;;;;;;;8.98;3.08;;;8.30;99.90;;;;;;20872450;28;20068;-42
2023/02/20 07:58:30;;;;;;;10.45;4.45;;;8.40;99.90;;;;;;20877669;28;20071;-43
2023/02/20 08:08:31;;;;;;;7.50;2.88;;;8.40;99.90;;;;;;20872234;28;20040;-42
2023/02/20 08:18:33;;;;;;;12.10;4.43;;;8.40;99.90;;;;;;20865587;28;20554;-42
2023/02/20 08:28:34;;;;;;;9.38;3.95;;;8.60;99.90;;;;;;20878176;28;20049;-43
2023/02/20 08:38:37;;;;;;;6.65;3.05;;;8.60;99.90;;;;;;20874894;28;20049;-42
2023/02/20 08:48:38;;;;;;;8.15;3.83;;;8.60;99.90;;;;;;20879285;28;20041;-42
2023/02/20 08:58:39;;;;;;;7.68;3.42;;;8.60;99.90;;;;;;20882729;28;20567;-42
2023/02/20 09:08:40;;;;;;;9.85;5.18;;;8.70;99.90;;;;;;20886279;28;20048;-42
2023/02/20 09:18:43;;;;;;;12.13;3.97;;;8.70;99.90;;;;;;20885177;28;20041;-42
2023/02/20 09:28:44;;;;;;;10.30;4.00;;;8.70;99.90;;;;;;20880252;28;20041;-43
2023/02/20 09:38:45;;;;;;;8.43;4.32;;;8.70;99.90;;;;;;20874523;28;20067;-43
2023/02/20 09:49:01;;;;;;;11.50;4.53;;;8.80;99.90;;;;;;20894637;28;20416;-43
2023/02/20 09:59:16;;;;;;;13.07;4.55;;;8.90;99.90;;;;;;20887422;28;20044;-42
2023/02/20 10:09:18;;;;;;;6.57;3.10;;;9.00;99.90;;;;;;20890781;28;20059;-42
2023/02/20 10:19:52;;;;;;;4.75;2.30;;;9.10;99.90;;;;;;20882480;28;20045;-42
2023/02/20 10:29:54;;;;;;;4.95;2.63;;;9.10;99.90;;;;;;20890109;28;20562;-43
2023/02/20 10:40:10;;;;;;;5.38;1.90;;;9.10;97.70;;;;;;20882739;28;20044;-43
2023/02/20 10:50:33;;;;;;;3.85;2.22;;;9.10;99.80;;;;;;20876705;28;20688;-42
2023/02/20 11:00:43;;;;;;;12.48;5.40;;;9.10;96.90;;;;;;20876181;28;20041;-42
2023/02/20 11:10:45;;;;;;;7.88;2.92;;;9.00;98.40;;;;;;20870731;28;22278;-42
2023/02/20 11:20:48;;;;;;;4.07;2.33;;;9.10;97.70;;;;;;20868847;28;20502;-42
2023/02/20 11:30:58;;;;;;;3.33;1.85;;;9.10;95.20;;;;;;20868787;28;20487;-42
2023/02/20 11:41:04;;;;;;;10.88;3.08;;;9.20;94.20;;;;;;20864054;28;20296;-42
2023/02/20 11:51:31;;;;;;;5.43;1.93;;;9.40;91.00;;;;;;20879985;28;20048;-42
2023/02/20 12:01:35;;;;;;;3.50;1.90;;;9.40;90.70;;;;;;20877331;28;21485;-45
2023/02/20 12:11:36;;;;;;;3.60;1.35;;;9.40;91.50;;;;;;20866950;28;20192;-45
2023/02/20 12:21:52;;;;;;;4.72;2.42;;;9.50;90.50;;;;;;20890466;28;20040;-45
2023/02/20 12:32:21;;;;;;;3.45;1.20;;;9.60;84.60;;;;;;20875478;28;20044;-45
2023/02/20 12:42:31;;;;;;;5.13;2.45;;;9.60;89.10;;;;;;20867375;28;20546;-43
2023/02/20 12:52:59;;;;;;;8.00;1.85;;;9.60;86.00;;;;;;20844013;28;20052;-42
2023/02/20 13:03:17;;;;;;;5.33;2.20;;;9.70;84.90;;;;;;20872720;28;22403;-45
2023/02/20 13:13:18;;;;;;;;;;;9.80;79.30;;;;;;20879107;28;20590;-42
2023/02/20 13:23:19;;;;;;;17.15;2.72;;;9.80;76.10;;;;;;20893976;28;19920;-45
2023/02/20 13:33:28;;;;;;;5.72;1.77;;;10.00;73.00;;;;;;20893552;28;20048;-45
2023/02/20 13:43:36;;;;;;;4.85;1.73;;;9.80;70.60;;;;;;20889687;28;20033;-42
2023/02/20 13:53:37;;;;;;;8.02;1.40;;;9.80;73.40;;;;;;20878950;28;20037;-45
2023/02/20 14:03:38;;;;;;;3.25;1.23;;;9.80;69.10;;;;;;20880692;28;20274;-43
2023/02/20 14:13:43;;;;;;;9.98;1.40;;;9.80;72.10;;;;;;20881742;28;20507;-43
2023/02/20 14:23:46;;;;;;;3.70;1.52;;;9.70;72.20;;;;;;20825737;28;20204;-42
2023/02/20 14:33:49;;;;;;;2.85;1.60;;;9.60;69.20;;;;;;20873194;28;20048;-43
2023/02/20 14:44:02;;;;;;;6.95;2.78;;;9.70;72.90;;;;;;20872069;28;20033;-43
2023/02/20 14:54:19;;;;;;;3.42;1.77;;;9.70;74.40;;;;;;20871881;28;20048;-43
2023/02/20 15:04:22;;;;;;;3.88;1.55;;;9.50;72.20;;;;;;20871405;28;20502;-43
2023/02/20 15:14:25;;;;;;;4.20;1.80;;;9.60;74.70;;;;;;20882349;28;20037;-43
2023/02/20 15:24:31;;;;;;;6.68;2.05;;;9.40;79.20;;;;;;20864134;28;20051;-43
2023/02/20 15:34:35;;;;;;;2.67;1.42;;;9.40;78.90;;;;;;20875395;28;20049;-43
2023/02/20 15:44:36;;;;;;;3.03;0.85;;;9.40;83.00;;;;;;20886362;28;20407;-42
2023/02/20 15:54:37;;;;;;;2.95;1.60;;;9.40;82.80;;;;;;20849792;28;20063;-43
2023/02/20 16:04:38;;;;;;;4.20;1.85;;;9.40;81.40;;;;;;20873768;28;20048;-43
2023/02/20 16:14:39;;;;;;;2.88;1.30;;;9.40;81.20;;;;;;20872165;28;21654;-42
2023/02/20 16:24:43;;;;;;;5.43;1.73;;;9.30;82.80;;;;;;20882033;28;20037;-43
2023/02/20 16:34:44;;;;;;;3.58;1.80;;;9.40;81.50;;;;;;20897442;28;20044;-43
2023/02/20 16:44:47;;;;;;;3.47;2.17;;;9.30;88.70;;;;;;20893166;28;20033;-43
2023/02/20 16:54:48;;;;;;;3.97;2.00;;;9.30;86.90;;;;;;20879887;28;20053;-43
2023/02/20 17:04:50;;;;;;;4.18;2.35;;;9.30;83.10;;;;;;20877407;28;20037;-42
2023/02/20 17:14:56;;;;;;;4.30;2.03;;;9.30;87.20;;;;;;20874064;28;20511;-43
2023/02/20 17:24:57;;;;;;;8.40;3.08;;;9.20;90.30;;;;;;20869501;28;20041;-42
2023/02/20 17:34:58;;;;;;;3.67;1.92;;;9.20;92.30;;;;;;20867727;28;20053;-42
2023/02/20 17:45:00;;;;;;;7.68;2.20;;;9.10;92.90;;;;;;20881176;28;20334;-43
2023/02/20 17:55:01;;;;;;;6.78;3.22;;;9.20;91.90;;;;;;20870695;28;20049;-43
2023/02/20 18:05:02;;;;;;;4.97;1.92;;;9.10;93.50;;;;;;20879037;28;20427;-43
2023/02/20 18:15:03;;;;;;;5.57;3.22;;;9.10;93.20;;;;;;20882923;28;20411;-43
2023/02/20 18:25:06;;;;;;;13.25;3.88;;;9.00;96.00;;;;;;20877545;28;20768;-43
2023/02/20 18:35:07;;;;;;;9.20;5.00;;;8.90;99.90;;;;;;20888259;28;20048;-43
2023/02/20 18:45:08;;;;;;;10.63;6.00;;;9.00;99.90;;;;;;20883579;28;20051;-42
2023/02/20 18:55:16;;;;;;;17.50;5.75;;;8.80;99.90;;;;;;20886143;28;20044;-42
2023/02/20 19:05:17;;;;;;;10.48;7.03;;;8.80;99.90;;;;;;20891476;28;20605;-43
2023/02/20 19:15:19;;;;;;;15.25;6.45;;;8.70;99.90;;;;;;20876551;28;20045;-42
2023/02/20 19:25:21;;;;;;;11.40;6.25;;;8.80;99.90;;;;;;20872966;28;20040;-43
2023/02/20 19:35:22;;;;;;;10.88;5.57;;;8.70;99.90;;;;;;20869438;28;20192;-42
2023/02/20 19:45:23;;;;;;;22.67;7.45;;;8.70;99.90;;;;;;20868994;28;20063;-43
2023/02/20 19:55:24;;;;;;;10.25;5.07;;;8.60;99.90;;;;;;20869207;28;20058;-42
2023/02/20 20:05:27;;;;;;;11.55;4.80;;;8.60;99.90;;;;;;20877887;28;20045;-43
2023/02/20 20:15:28;;;;;;;15.20;7.38;;;8.60;99.90;;;;;;20873553;28;20109;-43
2023/02/20 20:25:29;;;;;;;13.52;6.00;;;8.60;99.90;;;;;;20868295;28;20397;-43
2023/02/20 20:35:30;;;;;;;15.50;6.95;;;8.80;99.90;;;;;;20869066;28;20052;-43
2023/02/20 20:45:31;;;;;;;29.85;7.43;;;8.60;99.90;;;;;;20871802;28;20053;-43
2023/02/20 20:55:33;;;;;;;15.05;8.38;;;8.70;99.90;;;;;;20869477;28;20134;-43
2023/02/20 21:05:34;;;;;;;12.90;5.80;;;8.80;99.90;;;;;;20870300;28;20048;-43
2023/02/20 21:15:36;;;;;;;20.08;7.95;;;8.90;99.90;;;;;;20867528;28;20157;-42
2023/02/20 21:25:37;;;;;;;12.93;6.60;;;8.90;99.90;;;;;;20854163;28;20048;-42
2023/02/20 21:35:38;;;;;;;11.23;6.95;;;9.00;99.90;;;;;;20867743;28;20044;-43
2023/02/20 21:45:39;;;;;;;11.52;6.95;;;8.90;99.90;;;;;;20888128;28;20486;-42
2023/02/20 21:55:41;;;;;;;12.23;7.20;;;8.90;99.90;;;;;;20891633;28;20060;-42
